Terminal Aerodrome Forecast
Issued by NWS

Home | Current Version | Previous Version | Text Only | Print | Product List | Glossary On
Versions: 1 2 3 4 5 6 7 8 9 10 11 12 13 14 15 16 17 18 19 20 21 22 23 24 25 26
000
FTUS45 KLKN 222324
TAFELY
TAF
KELY 222324Z 2300/2324 VRB06KT P6SM VCTS BKN100CB
      TEMPO 2300/2302 TSRA SCT060CB BKN080
     FM230500 17008KT P6SM VCSH BKN090
     FM231800 VRB06G16KT P6SM VCTS BKN090CB=

USA.gov is the U.S. government's official web portal to all federal, state and local government web resources and services.